sensor_id;sensor_type;location;lat;lon;timestamp;P1;durP1;ratioP1;P2;durP2;ratioP2
9392;SDS011;4736;52.508;13.422;2023-07-20T00:00:16;6.03;;;5.47;;
9392;SDS011;4736;52.508;13.422;2023-07-20T00:03:19;5.40;;;5.00;;
9392;SDS011;4736;52.508;13.422;2023-07-20T00:06:24;5.20;;;4.90;;
9392;SDS011;4736;52.508;13.422;2023-07-20T00:09:29;5.53;;;5.23;;
9392;SDS011;4736;52.508;13.422;2023-07-20T00:12:34;5.53;;;5.23;;
9392;SDS011;4736;52.508;13.422;2023-07-20T00:15:37;5.20;;;5.00;;
9392;SDS011;4736;52.508;13.422;2023-07-20T00:18:41;5.20;;;5.00;;
9392;SDS011;4736;52.508;13.422;2023-07-20T00:21:44;5.97;;;5.70;;
9392;SDS011;4736;52.508;13.422;2023-07-20T00:24:47;5.63;;;5.40;;
9392;SDS011;4736;52.508;13.422;2023-07-20T00:27:52;5.93;;;5.43;;
9392;SDS011;4736;52.508;13.422;2023-07-20T00:30:55;5.93;;;5.47;;
9392;SDS011;4736;52.508;13.422;2023-07-20T00:33:58;5.57;;;5.17;;
9392;SDS011;4736;52.508;13.422;2023-07-20T00:37:01;5.40;;;5.10;;
9392;SDS011;4736;52.508;13.422;2023-07-20T00:40:05;6.60;;;6.00;;
9392;SDS011;4736;52.508;13.422;2023-07-20T00:43:10;5.70;;;5.30;;
9392;SDS011;4736;52.508;13.422;2023-07-20T00:46:14;6.13;;;5.83;;
9392;SDS011;4736;52.508;13.422;2023-07-20T00:49:17;5.33;;;5.13;;
9392;SDS011;4736;52.508;13.422;2023-07-20T00:52:23;7.97;;;7.47;;
9392;SDS011;4736;52.508;13.422;2023-07-20T00:55:27;7.33;;;6.73;;
9392;SDS011;4736;52.508;13.422;2023-07-20T00:58:33;6.93;;;6.43;;
9392;SDS011;4736;52.508;13.422;2023-07-20T01:01:36;6.70;;;6.30;;
9392;SDS011;4736;52.508;13.422;2023-07-20T01:04:40;6.70;;;6.10;;
9392;SDS011;4736;52.508;13.422;2023-07-20T01:07:46;6.70;;;6.27;;
9392;SDS011;4736;52.508;13.422;2023-07-20T01:10:56;7.03;;;6.63;;
9392;SDS011;4736;52.508;13.422;2023-07-20T01:14:06;5.80;;;5.47;;
9392;SDS011;4736;52.508;13.422;2023-07-20T01:17:10;6.77;;;6.47;;
9392;SDS011;4736;52.508;13.422;2023-07-20T01:20:15;7.53;;;7.13;;
9392;SDS011;4736;52.508;13.422;2023-07-20T01:23:29;7.30;;;6.80;;
9392;SDS011;4736;52.508;13.422;2023-07-20T01:27:07;6.50;;;6.17;;
9392;SDS011;4736;52.508;13.422;2023-07-20T01:30:55;6.73;;;6.30;;
9392;SDS011;4736;52.508;13.422;2023-07-20T01:34:03;7.10;;;6.70;;
9392;SDS011;4736;52.508;13.422;2023-07-20T01:37:08;7.67;;;7.10;;
9392;SDS011;4736;52.508;13.422;2023-07-20T01:40:13;8.00;;;7.47;;
9392;SDS011;4736;52.508;13.422;2023-07-20T01:43:18;7.37;;;6.90;;
9392;SDS011;4736;52.508;13.422;2023-07-20T01:46:21;6.47;;;6.20;;
9392;SDS011;4736;52.508;13.422;2023-07-20T01:49:26;7.70;;;7.20;;
9392;SDS011;4736;52.508;13.422;2023-07-20T01:52:29;7.33;;;6.73;;
9392;SDS011;4736;52.508;13.422;2023-07-20T01:55:32;8.07;;;7.47;;
9392;SDS011;4736;52.508;13.422;2023-07-20T01:58:35;8.30;;;7.60;;
9392;SDS011;4736;52.508;13.422;2023-07-20T02:01:39;8.73;;;8.23;;
9392;SDS011;4736;52.508;13.422;2023-07-20T02:04:43;7.93;;;7.43;;
9392;SDS011;4736;52.508;13.422;2023-07-20T02:07:47;7.50;;;7.20;;
9392;SDS011;4736;52.508;13.422;2023-07-20T02:10:51;8.20;;;7.70;;
9392;SDS011;4736;52.508;13.422;2023-07-20T02:13:55;8.83;;;8.00;;
9392;SDS011;4736;52.508;13.422;2023-07-20T02:16:58;9.13;;;8.43;;
9392;SDS011;4736;52.508;13.422;2023-07-20T02:20:04;8.87;;;8.27;;
9392;SDS011;4736;52.508;13.422;2023-07-20T02:23:10;7.90;;;7.40;;
9392;SDS011;4736;52.508;13.422;2023-07-20T02:26:13;8.17;;;7.77;;
9392;SDS011;4736;52.508;13.422;2023-07-20T02:29:18;8.13;;;7.53;;
9392;SDS011;4736;52.508;13.422;2023-07-20T02:32:21;8.90;;;8.30;;
9392;SDS011;4736;52.508;13.422;2023-07-20T02:35:26;9.07;;;8.57;;
9392;SDS011;4736;52.508;13.422;2023-07-20T02:38:29;8.17;;;7.80;;
9392;SDS011;4736;52.508;13.422;2023-07-20T02:41:34;10.60;;;9.87;;
9392;SDS011;4736;52.508;13.422;2023-07-20T02:44:38;10.53;;;9.83;;
9392;SDS011;4736;52.508;13.422;2023-07-20T02:47:41;11.13;;;10.13;;
9392;SDS011;4736;52.508;13.422;2023-07-20T02:50:45;10.50;;;9.50;;
9392;SDS011;4736;52.508;13.422;2023-07-20T02:53:49;9.30;;;8.70;;
9392;SDS011;4736;52.508;13.422;2023-07-20T02:56:52;11.33;;;10.53;;
9392;SDS011;4736;52.508;13.422;2023-07-20T02:59:56;12.50;;;11.40;;
9392;SDS011;4736;52.508;13.422;2023-07-20T03:02:59;13.50;;;12.40;;
9392;SDS011;4736;52.508;13.422;2023-07-20T03:06:03;12.60;;;11.60;;
9392;SDS011;4736;52.508;13.422;2023-07-20T03:09:07;13.27;;;12.37;;
9392;SDS011;4736;52.508;13.422;2023-07-20T03:12:10;13.60;;;12.33;;
9392;SDS011;4736;52.508;13.422;2023-07-20T03:15:13;11.50;;;10.70;;
9392;SDS011;4736;52.508;13.422;2023-07-20T03:18:17;11.43;;;10.57;;
9392;SDS011;4736;52.508;13.422;2023-07-20T03:21:21;11.77;;;10.97;;
9392;SDS011;4736;52.508;13.422;2023-07-20T03:24:24;12.03;;;11.13;;
9392;SDS011;4736;52.508;13.422;2023-07-20T03:27:27;11.30;;;10.60;;
9392;SDS011;4736;52.508;13.422;2023-07-20T03:30:31;12.60;;;11.80;;
9392;SDS011;4736;52.508;13.422;2023-07-20T03:33:34;12.20;;;11.27;;
9392;SDS011;4736;52.508;13.422;2023-07-20T03:36:39;13.10;;;12.03;;
9392;SDS011;4736;52.508;13.422;2023-07-20T03:39:41;12.33;;;11.33;;
9392;SDS011;4736;52.508;13.422;2023-07-20T03:42:45;12.23;;;11.40;;
9392;SDS011;4736;52.508;13.422;2023-07-20T03:45:48;12.73;;;11.83;;
9392;SDS011;4736;52.508;13.422;2023-07-20T03:48:51;13.70;;;12.70;;
9392;SDS011;4736;52.508;13.422;2023-07-20T03:51:56;11.97;;;11.17;;
9392;SDS011;4736;52.508;13.422;2023-07-20T03:54:59;12.10;;;11.23;;
9392;SDS011;4736;52.508;13.422;2023-07-20T03:58:02;12.50;;;11.60;;
9392;SDS011;4736;52.508;13.422;2023-07-20T04:01:05;12.63;;;11.70;;
9392;SDS011;4736;52.508;13.422;2023-07-20T04:04:09;11.77;;;10.97;;
9392;SDS011;4736;52.508;13.422;2023-07-20T04:07:13;11.03;;;10.20;;
9392;SDS011;4736;52.508;13.422;2023-07-20T04:10:16;11.03;;;10.33;;
9392;SDS011;4736;52.508;13.422;2023-07-20T04:13:20;10.27;;;9.37;;
9392;SDS011;4736;52.508;13.422;2023-07-20T04:16:23;10.37;;;9.60;;
9392;SDS011;4736;52.508;13.422;2023-07-20T04:19:27;10.97;;;10.27;;
9392;SDS011;4736;52.508;13.422;2023-07-20T04:22:32;11.03;;;10.40;;
9392;SDS011;4736;52.508;13.422;2023-07-20T04:25:35;9.90;;;9.40;;
9392;SDS011;4736;52.508;13.422;2023-07-20T04:28:41;10.90;;;10.20;;
9392;SDS011;4736;52.508;13.422;2023-07-20T04:31:44;10.27;;;9.67;;
9392;SDS011;4736;52.508;13.422;2023-07-20T04:34:48;11.23;;;10.33;;
9392;SDS011;4736;52.508;13.422;2023-07-20T04:37:52;10.40;;;9.60;;
9392;SDS011;4736;52.508;13.422;2023-07-20T04:40:55;10.70;;;10.00;;
9392;SDS011;4736;52.508;13.422;2023-07-20T04:43:58;10.97;;;10.27;;
9392;SDS011;4736;52.508;13.422;2023-07-20T04:47:01;11.10;;;10.10;;
9392;SDS011;4736;52.508;13.422;2023-07-20T04:50:05;10.30;;;9.70;;
9392;SDS011;4736;52.508;13.422;2023-07-20T04:53:11;11.50;;;10.30;;
9392;SDS011;4736;52.508;13.422;2023-07-20T04:56:14;9.77;;;9.17;;
9392;SDS011;4736;52.508;13.422;2023-07-20T04:59:17;10.07;;;9.43;;
9392;SDS011;4736;52.508;13.422;2023-07-20T05:02:20;10.83;;;10.23;;
9392;SDS011;4736;52.508;13.422;2023-07-20T05:05:24;9.07;;;8.40;;
9392;SDS011;4736;52.508;13.422;2023-07-20T05:08:28;9.37;;;8.87;;
9392;SDS011;4736;52.508;13.422;2023-07-20T05:11:31;9.67;;;9.00;;
9392;SDS011;4736;52.508;13.422;2023-07-20T05:14:34;9.40;;;8.63;;
9392;SDS011;4736;52.508;13.422;2023-07-20T05:17:37;8.33;;;7.57;;
9392;SDS011;4736;52.508;13.422;2023-07-20T05:20:41;7.60;;;7.20;;
9392;SDS011;4736;52.508;13.422;2023-07-20T05:23:45;7.23;;;6.93;;
9392;SDS011;4736;52.508;13.422;2023-07-20T05:26:51;7.57;;;7.17;;
9392;SDS011;4736;52.508;13.422;2023-07-20T05:29:54;6.47;;;6.27;;
9392;SDS011;4736;52.508;13.422;2023-07-20T05:32:57;6.53;;;6.23;;
9392;SDS011;4736;52.508;13.422;2023-07-20T05:36:00;6.30;;;5.67;;
9392;SDS011;4736;52.508;13.422;2023-07-20T05:39:05;7.10;;;6.70;;
9392;SDS011;4736;52.508;13.422;2023-07-20T05:42:08;6.30;;;5.87;;
9392;SDS011;4736;52.508;13.422;2023-07-20T05:45:11;7.13;;;6.83;;
9392;SDS011;4736;52.508;13.422;2023-07-20T05:48:14;7.37;;;6.70;;
9392;SDS011;4736;52.508;13.422;2023-07-20T05:51:18;6.53;;;6.00;;
9392;SDS011;4736;52.508;13.422;2023-07-20T05:54:23;6.80;;;6.40;;
9392;SDS011;4736;52.508;13.422;2023-07-20T05:57:27;7.63;;;7.10;;
9392;SDS011;4736;52.508;13.422;2023-07-20T06:00:30;6.10;;;5.80;;
9392;SDS011;4736;52.508;13.422;2023-07-20T06:03:33;8.03;;;7.43;;
9392;SDS011;4736;52.508;13.422;2023-07-20T06:06:36;7.60;;;7.20;;
9392;SDS011;4736;52.508;13.422;2023-07-20T06:09:40;9.97;;;7.70;;
9392;SDS011;4736;52.508;13.422;2023-07-20T06:12:44;8.27;;;7.57;;
9392;SDS011;4736;52.508;13.422;2023-07-20T06:15:47;7.60;;;7.10;;
9392;SDS011;4736;52.508;13.422;2023-07-20T06:18:50;8.67;;;7.57;;
9392;SDS011;4736;52.508;13.422;2023-07-20T06:21:53;8.50;;;7.90;;
9392;SDS011;4736;52.508;13.422;2023-07-20T06:24:58;8.63;;;8.13;;
9392;SDS011;4736;52.508;13.422;2023-07-20T06:28:03;7.47;;;6.90;;
9392;SDS011;4736;52.508;13.422;2023-07-20T06:31:06;6.97;;;6.43;;
9392;SDS011;4736;52.508;13.422;2023-07-20T06:34:09;7.00;;;6.70;;
9392;SDS011;4736;52.508;13.422;2023-07-20T06:37:12;7.10;;;6.60;;
9392;SDS011;4736;52.508;13.422;2023-07-20T06:40:17;6.43;;;5.90;;
9392;SDS011;4736;52.508;13.422;2023-07-20T06:43:23;5.30;;;5.10;;
9392;SDS011;4736;52.508;13.422;2023-07-20T06:46:29;5.67;;;5.33;;
9392;SDS011;4736;52.508;13.422;2023-07-20T06:49:32;6.23;;;5.63;;
9392;SDS011;4736;52.508;13.422;2023-07-20T06:52:35;5.17;;;4.77;;
9392;SDS011;4736;52.508;13.422;2023-07-20T06:55:41;4.97;;;4.70;;
9392;SDS011;4736;52.508;13.422;2023-07-20T06:58:44;4.30;;;4.00;;
9392;SDS011;4736;52.508;13.422;2023-07-20T07:01:48;3.40;;;3.30;;
9392;SDS011;4736;52.508;13.422;2023-07-20T07:04:51;3.47;;;3.27;;
9392;SDS011;4736;52.508;13.422;2023-07-20T07:08:01;3.37;;;3.10;;
9392;SDS011;4736;52.508;13.422;2023-07-20T07:11:06;3.70;;;3.37;;
9392;SDS011;4736;52.508;13.422;2023-07-20T07:14:09;3.60;;;3.40;;
9392;SDS011;4736;52.508;13.422;2023-07-20T07:17:12;2.93;;;2.77;;
9392;SDS011;4736;52.508;13.422;2023-07-20T07:20:20;3.13;;;2.37;;
9392;SDS011;4736;52.508;13.422;2023-07-20T07:23:23;2.80;;;2.50;;
9392;SDS011;4736;52.508;13.422;2023-07-20T07:26:28;2.13;;;2.13;;
9392;SDS011;4736;52.508;13.422;2023-07-20T07:29:31;2.20;;;2.07;;
9392;SDS011;4736;52.508;13.422;2023-07-20T07:32:34;2.03;;;1.93;;
9392;SDS011;4736;52.508;13.422;2023-07-20T07:35:37;2.33;;;2.10;;
9392;SDS011;4736;52.508;13.422;2023-07-20T07:38:41;2.53;;;2.13;;
9392;SDS011;4736;52.508;13.422;2023-07-20T07:41:49;1.90;;;1.90;;
9392;SDS011;4736;52.508;13.422;2023-07-20T07:44:53;2.03;;;1.90;;
9392;SDS011;4736;52.508;13.422;2023-07-20T07:47:56;1.50;;;1.50;;
9392;SDS011;4736;52.508;13.422;2023-07-20T07:50:59;1.70;;;1.60;;
9392;SDS011;4736;52.508;13.422;2023-07-20T07:54:02;2.03;;;1.93;;
9392;SDS011;4736;52.508;13.422;2023-07-20T07:57:08;3.80;;;2.10;;
9392;SDS011;4736;52.508;13.422;2023-07-20T08:00:12;2.47;;;2.37;;
9392;SDS011;4736;52.508;13.422;2023-07-20T08:03:16;2.13;;;2.00;;
9392;SDS011;4736;52.508;13.422;2023-07-20T08:06:21;2.00;;;1.90;;
9392;SDS011;4736;52.508;13.422;2023-07-20T08:09:25;2.17;;;2.07;;
9392;SDS011;4736;52.508;13.422;2023-07-20T08:12:30;1.93;;;1.93;;
9392;SDS011;4736;52.508;13.422;2023-07-20T08:15:33;2.10;;;2.10;;
9392;SDS011;4736;52.508;13.422;2023-07-20T08:18:36;1.83;;;1.70;;
9392;SDS011;4736;52.508;13.422;2023-07-20T08:21:39;1.43;;;1.43;;
9392;SDS011;4736;52.508;13.422;2023-07-20T08:24:42;1.50;;;1.40;;
9392;SDS011;4736;52.508;13.422;2023-07-20T08:27:48;1.40;;;1.30;;
9392;SDS011;4736;52.508;13.422;2023-07-20T08:30:51;1.57;;;1.57;;
9392;SDS011;4736;52.508;13.422;2023-07-20T08:33:54;1.37;;;1.37;;
9392;SDS011;4736;52.508;13.422;2023-07-20T08:36:58;1.50;;;1.50;;
9392;SDS011;4736;52.508;13.422;2023-07-20T08:40:01;1.40;;;1.40;;
9392;SDS011;4736;52.508;13.422;2023-07-20T08:43:08;1.27;;;1.27;;
9392;SDS011;4736;52.508;13.422;2023-07-20T08:46:12;1.27;;;1.27;;
9392;SDS011;4736;52.508;13.422;2023-07-20T08:49:17;1.67;;;1.57;;
9392;SDS011;4736;52.508;13.422;2023-07-20T08:52:23;1.30;;;1.30;;
9392;SDS011;4736;52.508;13.422;2023-07-20T08:55:27;1.30;;;1.30;;
9392;SDS011;4736;52.508;13.422;2023-07-20T08:58:32;2.83;;;1.30;;
9392;SDS011;4736;52.508;13.422;2023-07-20T09:01:37;1.30;;;1.20;;
9392;SDS011;4736;52.508;13.422;2023-07-20T09:04:42;1.47;;;1.47;;
9392;SDS011;4736;52.508;13.422;2023-07-20T09:07:47;1.40;;;1.40;;
9392;SDS011;4736;52.508;13.422;2023-07-20T09:10:51;2.10;;;1.40;;
9392;SDS011;4736;52.508;13.422;2023-07-20T09:14:05;1.13;;;1.13;;
9392;SDS011;4736;52.508;13.422;2023-07-20T09:17:12;1.60;;;1.50;;
9392;SDS011;4736;52.508;13.422;2023-07-20T09:20:18;2.83;;;1.60;;
9392;SDS011;4736;52.508;13.422;2023-07-20T09:23:29;1.37;;;1.27;;
9392;SDS011;4736;52.508;13.422;2023-07-20T09:26:35;1.30;;;1.30;;
9392;SDS011;4736;52.508;13.422;2023-07-20T09:29:48;1.20;;;1.20;;
9392;SDS011;4736;52.508;13.422;2023-07-20T09:32:52;1.90;;;1.50;;
9392;SDS011;4736;52.508;13.422;2023-07-20T09:36:01;1.70;;;1.30;;
9392;SDS011;4736;52.508;13.422;2023-07-20T09:39:25;1.37;;;1.37;;
9392;SDS011;4736;52.508;13.422;2023-07-20T09:42:30;1.53;;;1.17;;
9392;SDS011;4736;52.508;13.422;2023-07-20T09:45:39;1.10;;;1.10;;
9392;SDS011;4736;52.508;13.422;2023-07-20T09:48:51;1.10;;;1.10;;
9392;SDS011;4736;52.508;13.422;2023-07-20T09:51:58;1.27;;;1.27;;
9392;SDS011;4736;52.508;13.422;2023-07-20T09:55:04;1.77;;;1.67;;
9392;SDS011;4736;52.508;13.422;2023-07-20T09:58:09;1.47;;;1.47;;
9392;SDS011;4736;52.508;13.422;2023-07-20T10:01:14;1.50;;;1.50;;
9392;SDS011;4736;52.508;13.422;2023-07-20T10:04:24;1.60;;;1.60;;
9392;SDS011;4736;52.508;13.422;2023-07-20T10:07:28;1.50;;;1.50;;
9392;SDS011;4736;52.508;13.422;2023-07-20T10:10:33;1.70;;;1.60;;
9392;SDS011;4736;52.508;13.422;2023-07-20T10:13:38;1.60;;;1.60;;
9392;SDS011;4736;52.508;13.422;2023-07-20T10:16:46;1.73;;;1.70;;
9392;SDS011;4736;52.508;13.422;2023-07-20T10:19:54;2.63;;;1.90;;
9392;SDS011;4736;52.508;13.422;2023-07-20T10:23:01;1.57;;;1.57;;
9392;SDS011;4736;52.508;13.422;2023-07-20T10:26:06;2.03;;;1.93;;
9392;SDS011;4736;52.508;13.422;2023-07-20T10:29:09;2.63;;;2.00;;
9392;SDS011;4736;52.508;13.422;2023-07-20T10:32:15;1.90;;;1.80;;
9392;SDS011;4736;52.508;13.422;2023-07-20T10:35:20;1.93;;;1.83;;
9392;SDS011;4736;52.508;13.422;2023-07-20T10:38:39;1.80;;;1.70;;
9392;SDS011;4736;52.508;13.422;2023-07-20T10:41:44;2.00;;;2.00;;
9392;SDS011;4736;52.508;13.422;2023-07-20T10:44:47;1.80;;;1.80;;
9392;SDS011;4736;52.508;13.422;2023-07-20T10:47:51;1.93;;;1.93;;
9392;SDS011;4736;52.508;13.422;2023-07-20T10:51:14;3.47;;;2.27;;
9392;SDS011;4736;52.508;13.422;2023-07-20T10:54:46;2.20;;;2.00;;
9392;SDS011;4736;52.508;13.422;2023-07-20T10:58:05;3.17;;;2.20;;
9392;SDS011;4736;52.508;13.422;2023-07-20T11:01:11;2.90;;;2.07;;
9392;SDS011;4736;52.508;13.422;2023-07-20T11:04:25;3.80;;;2.37;;
9392;SDS011;4736;52.508;13.422;2023-07-20T11:07:41;1.90;;;1.80;;
9392;SDS011;4736;52.508;13.422;2023-07-20T11:10:44;2.00;;;1.90;;
9392;SDS011;4736;52.508;13.422;2023-07-20T11:13:54;2.07;;;2.07;;
9392;SDS011;4736;52.508;13.422;2023-07-20T11:16:59;1.80;;;1.80;;
9392;SDS011;4736;52.508;13.422;2023-07-20T11:20:16;2.33;;;1.80;;
9392;SDS011;4736;52.508;13.422;2023-07-20T11:23:23;3.30;;;2.03;;
9392;SDS011;4736;52.508;13.422;2023-07-20T11:26:26;1.80;;;1.80;;
9392;SDS011;4736;52.508;13.422;2023-07-20T11:29:30;3.33;;;1.93;;
9392;SDS011;4736;52.508;13.422;2023-07-20T11:32:35;2.20;;;2.00;;
9392;SDS011;4736;52.508;13.422;2023-07-20T11:35:43;1.80;;;1.70;;
9392;SDS011;4736;52.508;13.422;2023-07-20T11:38:47;2.00;;;1.90;;
9392;SDS011;4736;52.508;13.422;2023-07-20T11:41:51;1.70;;;1.70;;
9392;SDS011;4736;52.508;13.422;2023-07-20T11:44:55;1.90;;;1.60;;
9392;SDS011;4736;52.508;13.422;2023-07-20T11:48:02;1.60;;;1.60;;
9392;SDS011;4736;52.508;13.422;2023-07-20T11:51:06;1.50;;;1.50;;
9392;SDS011;4736;52.508;13.422;2023-07-20T11:54:17;1.50;;;1.40;;
9392;SDS011;4736;52.508;13.422;2023-07-20T11:57:20;1.57;;;1.53;;
9392;SDS011;4736;52.508;13.422;2023-07-20T12:00:24;1.33;;;1.30;;
9392;SDS011;4736;52.508;13.422;2023-07-20T12:03:28;1.40;;;1.40;;
9392;SDS011;4736;52.508;13.422;2023-07-20T12:06:34;1.37;;;1.37;;
9392;SDS011;4736;52.508;13.422;2023-07-20T12:09:37;1.67;;;1.67;;
9392;SDS011;4736;52.508;13.422;2023-07-20T12:12:52;3.03;;;2.00;;
9392;SDS011;4736;52.508;13.422;2023-07-20T12:15:55;1.70;;;1.60;;
9392;SDS011;4736;52.508;13.422;2023-07-20T12:18:59;1.30;;;1.30;;
9392;SDS011;4736;52.508;13.422;2023-07-20T12:22:05;1.40;;;1.40;;
9392;SDS011;4736;52.508;13.422;2023-07-20T12:25:09;1.30;;;1.27;;
9392;SDS011;4736;52.508;13.422;2023-07-20T12:28:13;1.60;;;1.60;;
9392;SDS011;4736;52.508;13.422;2023-07-20T12:31:17;1.30;;;1.30;;
9392;SDS011;4736;52.508;13.422;2023-07-20T12:34:20;1.27;;;1.27;;
9392;SDS011;4736;52.508;13.422;2023-07-20T12:37:25;1.30;;;1.30;;
9392;SDS011;4736;52.508;13.422;2023-07-20T12:40:28;2.40;;;1.60;;
9392;SDS011;4736;52.508;13.422;2023-07-20T12:43:32;1.30;;;1.30;;
9392;SDS011;4736;52.508;13.422;2023-07-20T12:46:35;1.30;;;1.30;;
9392;SDS011;4736;52.508;13.422;2023-07-20T12:49:40;1.40;;;1.40;;
9392;SDS011;4736;52.508;13.422;2023-07-20T12:52:48;1.23;;;1.23;;
9392;SDS011;4736;52.508;13.422;2023-07-20T12:55:51;1.20;;;1.20;;
9392;SDS011;4736;52.508;13.422;2023-07-20T12:58:54;1.57;;;1.47;;
9392;SDS011;4736;52.508;13.422;2023-07-20T13:01:57;1.27;;;1.27;;
9392;SDS011;4736;52.508;13.422;2023-07-20T13:05:00;1.27;;;1.27;;
9392;SDS011;4736;52.508;13.422;2023-07-20T13:08:05;1.30;;;1.30;;
9392;SDS011;4736;52.508;13.422;2023-07-20T13:11:11;1.53;;;1.30;;
9392;SDS011;4736;52.508;13.422;2023-07-20T13:14:14;1.70;;;1.30;;
9392;SDS011;4736;52.508;13.422;2023-07-20T13:17:17;1.20;;;1.20;;
9392;SDS011;4736;52.508;13.422;2023-07-20T13:20:20;1.37;;;1.30;;
9392;SDS011;4736;52.508;13.422;2023-07-20T13:23:25;1.20;;;1.20;;
9392;SDS011;4736;52.508;13.422;2023-07-20T13:26:28;1.20;;;1.20;;
9392;SDS011;4736;52.508;13.422;2023-07-20T13:29:31;1.30;;;1.30;;
9392;SDS011;4736;52.508;13.422;2023-07-20T13:32:34;1.00;;;1.00;;
9392;SDS011;4736;52.508;13.422;2023-07-20T13:35:38;1.20;;;1.10;;
9392;SDS011;4736;52.508;13.422;2023-07-20T13:38:45;1.30;;;1.30;;
9392;SDS011;4736;52.508;13.422;2023-07-20T13:41:49;1.40;;;1.40;;
9392;SDS011;4736;52.508;13.422;2023-07-20T13:44:53;1.00;;;1.00;;
9392;SDS011;4736;52.508;13.422;2023-07-20T13:47:57;2.27;;;1.37;;
9392;SDS011;4736;52.508;13.422;2023-07-20T13:51:03;1.20;;;1.20;;
9392;SDS011;4736;52.508;13.422;2023-07-20T13:54:08;1.40;;;1.40;;
9392;SDS011;4736;52.508;13.422;2023-07-20T13:57:15;1.20;;;1.20;;
9392;SDS011;4736;52.508;13.422;2023-07-20T14:00:19;1.13;;;1.13;;
9392;SDS011;4736;52.508;13.422;2023-07-20T14:03:23;1.20;;;1.20;;
9392;SDS011;4736;52.508;13.422;2023-07-20T14:06:29;1.20;;;1.20;;
9392;SDS011;4736;52.508;13.422;2023-07-20T14:09:35;1.37;;;1.30;;
9392;SDS011;4736;52.508;13.422;2023-07-20T14:12:58;1.30;;;1.20;;
9392;SDS011;4736;52.508;13.422;2023-07-20T14:16:02;1.50;;;1.50;;
9392;SDS011;4736;52.508;13.422;2023-07-20T14:19:05;1.20;;;1.20;;
9392;SDS011;4736;52.508;13.422;2023-07-20T14:22:08;1.30;;;1.30;;
9392;SDS011;4736;52.508;13.422;2023-07-20T14:25:14;1.30;;;1.30;;
9392;SDS011;4736;52.508;13.422;2023-07-20T14:28:20;1.40;;;1.40;;
9392;SDS011;4736;52.508;13.422;2023-07-20T14:31:23;1.63;;;1.53;;
9392;SDS011;4736;52.508;13.422;2023-07-20T14:34:27;2.20;;;1.50;;
9392;SDS011;4736;52.508;13.422;2023-07-20T14:37:30;2.27;;;1.30;;
9392;SDS011;4736;52.508;13.422;2023-07-20T14:40:34;1.40;;;1.40;;
9392;SDS011;4736;52.508;13.422;2023-07-20T14:43:37;1.50;;;1.50;;
9392;SDS011;4736;52.508;13.422;2023-07-20T14:46:41;1.43;;;1.33;;
9392;SDS011;4736;52.508;13.422;2023-07-20T14:49:55;1.70;;;1.27;;
9392;SDS011;4736;52.508;13.422;2023-07-20T14:52:58;1.77;;;1.40;;
9392;SDS011;4736;52.508;13.422;2023-07-20T14:56:08;1.20;;;1.20;;
9392;SDS011;4736;52.508;13.422;2023-07-20T14:59:11;1.20;;;1.20;;
9392;SDS011;4736;52.508;13.422;2023-07-20T15:02:14;1.57;;;1.57;;
9392;SDS011;4736;52.508;13.422;2023-07-20T15:05:21;1.30;;;1.30;;
9392;SDS011;4736;52.508;13.422;2023-07-20T15:08:24;1.27;;;1.27;;
9392;SDS011;4736;52.508;13.422;2023-07-20T15:11:29;2.40;;;1.80;;
9392;SDS011;4736;52.508;13.422;2023-07-20T15:14:34;1.30;;;1.20;;
9392;SDS011;4736;52.508;13.422;2023-07-20T15:17:38;1.67;;;1.57;;
9392;SDS011;4736;52.508;13.422;2023-07-20T15:20:42;1.30;;;1.30;;
9392;SDS011;4736;52.508;13.422;2023-07-20T15:23:49;1.70;;;1.70;;
9392;SDS011;4736;52.508;13.422;2023-07-20T15:26:53;1.37;;;1.37;;
9392;SDS011;4736;52.508;13.422;2023-07-20T15:29:56;1.80;;;1.33;;
9392;SDS011;4736;52.508;13.422;2023-07-20T15:32:59;1.40;;;1.30;;
9392;SDS011;4736;52.508;13.422;2023-07-20T15:36:06;1.13;;;1.13;;
9392;SDS011;4736;52.508;13.422;2023-07-20T15:39:09;1.40;;;1.40;;
9392;SDS011;4736;52.508;13.422;2023-07-20T15:42:13;2.10;;;1.60;;
9392;SDS011;4736;52.508;13.422;2023-07-20T15:45:17;1.40;;;1.40;;
9392;SDS011;4736;52.508;13.422;2023-07-20T15:48:21;1.60;;;1.60;;
9392;SDS011;4736;52.508;13.422;2023-07-20T15:51:25;1.60;;;1.60;;
9392;SDS011;4736;52.508;13.422;2023-07-20T15:54:28;1.77;;;1.60;;
9392;SDS011;4736;52.508;13.422;2023-07-20T15:57:32;1.50;;;1.50;;
9392;SDS011;4736;52.508;13.422;2023-07-20T16:00:36;2.73;;;1.60;;
9392;SDS011;4736;52.508;13.422;2023-07-20T16:03:39;1.70;;;1.60;;
9392;SDS011;4736;52.508;13.422;2023-07-20T16:06:42;1.60;;;1.50;;
9392;SDS011;4736;52.508;13.422;2023-07-20T16:09:45;3.30;;;1.77;;
9392;SDS011;4736;52.508;13.422;2023-07-20T16:12:51;1.90;;;1.90;;
9392;SDS011;4736;52.508;13.422;2023-07-20T16:15:54;1.83;;;1.83;;
9392;SDS011;4736;52.508;13.422;2023-07-20T16:18:57;1.70;;;1.60;;
9392;SDS011;4736;52.508;13.422;2023-07-20T16:22:00;2.23;;;1.60;;
9392;SDS011;4736;52.508;13.422;2023-07-20T16:25:05;2.03;;;1.90;;
9392;SDS011;4736;52.508;13.422;2023-07-20T16:28:11;1.80;;;1.70;;
9392;SDS011;4736;52.508;13.422;2023-07-20T16:31:14;2.07;;;1.87;;
9392;SDS011;4736;52.508;13.422;2023-07-20T16:34:18;1.40;;;1.30;;
9392;SDS011;4736;52.508;13.422;2023-07-20T16:37:25;1.67;;;1.67;;
9392;SDS011;4736;52.508;13.422;2023-07-20T16:40:31;1.70;;;1.57;;
9392;SDS011;4736;52.508;13.422;2023-07-20T16:43:55;2.13;;;2.00;;
9392;SDS011;4736;52.508;13.422;2023-07-20T16:47:04;1.40;;;1.40;;
9392;SDS011;4736;52.508;13.422;2023-07-20T16:50:10;1.83;;;1.73;;
9392;SDS011;4736;52.508;13.422;2023-07-20T16:53:13;1.73;;;1.63;;
9392;SDS011;4736;52.508;13.422;2023-07-20T16:56:16;1.73;;;1.70;;
9392;SDS011;4736;52.508;13.422;2023-07-20T16:59:21;3.07;;;1.70;;
9392;SDS011;4736;52.508;13.422;2023-07-20T17:02:24;2.10;;;1.60;;
9392;SDS011;4736;52.508;13.422;2023-07-20T17:05:28;3.50;;;1.80;;
9392;SDS011;4736;52.508;13.422;2023-07-20T17:08:31;1.90;;;1.73;;
9392;SDS011;4736;52.508;13.422;2023-07-20T17:11:35;1.70;;;1.70;;
9392;SDS011;4736;52.508;13.422;2023-07-20T17:14:39;1.70;;;1.70;;
9392;SDS011;4736;52.508;13.422;2023-07-20T17:17:42;1.93;;;1.70;;
9392;SDS011;4736;52.508;13.422;2023-07-20T17:20:45;1.60;;;1.60;;
9392;SDS011;4736;52.508;13.422;2023-07-20T17:23:53;1.63;;;1.47;;
9392;SDS011;4736;52.508;13.422;2023-07-20T17:26:58;4.53;;;1.60;;
9392;SDS011;4736;52.508;13.422;2023-07-20T17:30:07;1.90;;;1.80;;
9392;SDS011;4736;52.508;13.422;2023-07-20T17:33:10;1.80;;;1.70;;
9392;SDS011;4736;52.508;13.422;2023-07-20T17:36:13;3.40;;;1.77;;
9392;SDS011;4736;52.508;13.422;2023-07-20T17:39:21;1.70;;;1.70;;
9392;SDS011;4736;52.508;13.422;2023-07-20T17:42:44;2.00;;;1.80;;
9392;SDS011;4736;52.508;13.422;2023-07-20T17:45:52;1.80;;;1.80;;
9392;SDS011;4736;52.508;13.422;2023-07-20T17:49:15;1.80;;;1.80;;
9392;SDS011;4736;52.508;13.422;2023-07-20T17:52:18;1.50;;;1.50;;
9392;SDS011;4736;52.508;13.422;2023-07-20T17:55:25;3.03;;;1.90;;
9392;SDS011;4736;52.508;13.422;2023-07-20T17:58:29;2.00;;;1.90;;
9392;SDS011;4736;52.508;13.422;2023-07-20T18:01:35;2.97;;;1.90;;
9392;SDS011;4736;52.508;13.422;2023-07-20T18:04:38;2.40;;;1.80;;
9392;SDS011;4736;52.508;13.422;2023-07-20T18:07:42;1.70;;;1.70;;
9392;SDS011;4736;52.508;13.422;2023-07-20T18:10:45;1.90;;;1.67;;
9392;SDS011;4736;52.508;13.422;2023-07-20T18:13:48;1.70;;;1.57;;
9392;SDS011;4736;52.508;13.422;2023-07-20T18:16:53;1.70;;;1.70;;
9392;SDS011;4736;52.508;13.422;2023-07-20T18:19:59;2.27;;;1.70;;
9392;SDS011;4736;52.508;13.422;2023-07-20T18:23:02;3.23;;;1.90;;
9392;SDS011;4736;52.508;13.422;2023-07-20T18:26:05;1.70;;;1.60;;
9392;SDS011;4736;52.508;13.422;2023-07-20T18:29:10;1.80;;;1.70;;
9392;SDS011;4736;52.508;13.422;2023-07-20T18:32:14;2.07;;;1.60;;
9392;SDS011;4736;52.508;13.422;2023-07-20T18:35:17;1.90;;;1.77;;
9392;SDS011;4736;52.508;13.422;2023-07-20T18:38:20;1.93;;;1.83;;
9392;SDS011;4736;52.508;13.422;2023-07-20T18:41:25;1.50;;;1.50;;
9392;SDS011;4736;52.508;13.422;2023-07-20T18:44:28;1.70;;;1.70;;
9392;SDS011;4736;52.508;13.422;2023-07-20T18:47:32;1.50;;;1.50;;